createdAt,value
2022-10-21T00:00:24.567Z,3.88
2022-10-21T00:03:30.920Z,4.30
2022-10-21T00:06:37.311Z,3.52
2022-10-21T00:09:43.743Z,3.46
2022-10-21T00:12:51.639Z,3.45
2022-10-21T00:16:02.765Z,3.72
2022-10-21T00:19:08.935Z,3.50
2022-10-21T00:22:15.396Z,3.24
2022-10-21T00:25:21.670Z,3.48
2022-10-21T00:28:29.833Z,3.20
2022-10-21T00:31:35.946Z,3.41
2022-10-21T00:34:43.416Z,3.19
2022-10-21T00:37:49.695Z,3.08
2022-10-21T00:40:56.649Z,2.40
2022-10-21T00:44:06.582Z,2.55
2022-10-21T00:47:17.355Z,2.70
2022-10-21T00:50:32.212Z,3.09
2022-10-21T00:53:41.116Z,3.32
2022-10-21T00:56:49.586Z,2.87
2022-10-21T00:59:59.630Z,3.25
2022-10-21T01:03:05.640Z,2.50
2022-10-21T01:06:14.063Z,2.20
2022-10-21T01:09:22.467Z,2.03
2022-10-21T01:12:43.589Z,2.43
2022-10-21T01:15:58.051Z,1.74
2022-10-21T01:19:17.756Z,2.29
2022-10-21T01:22:38.603Z,1.79
2022-10-21T01:26:19.294Z,1.78
2022-10-21T01:29:47.831Z,2.38
2022-10-21T01:33:20.249Z,2.46
2022-10-21T01:36:38.371Z,2.00
2022-10-21T01:39:50.916Z,2.41
2022-10-21T01:43:01.948Z,2.30
2022-10-21T01:46:14.859Z,2.57
2022-10-21T01:49:28.201Z,2.33
2022-10-21T01:52:34.832Z,2.45
2022-10-21T01:55:42.897Z,2.39
2022-10-21T01:58:50.196Z,2.80
2022-10-21T02:01:58.642Z,1.81
2022-10-21T02:05:12.098Z,0.98
2022-10-21T02:08:18.118Z,1.36
2022-10-21T02:11:24.890Z,0.88
2022-10-21T02:14:34.097Z,1.12
2022-10-21T02:17:44.629Z,1.61
2022-10-21T02:20:57.342Z,1.84
2022-10-21T02:24:09.258Z,2.24
2022-10-21T02:27:15.356Z,2.17
2022-10-21T02:30:22.480Z,1.88
2022-10-21T02:33:39.064Z,1.53
2022-10-21T02:36:55.553Z,1.94
2022-10-21T02:40:08.024Z,1.80
2022-10-21T02:43:20.402Z,2.09
2022-10-21T02:46:27.496Z,1.88
2022-10-21T02:49:33.789Z,1.63
2022-10-21T02:52:41.243Z,1.48
2022-10-21T02:55:47.235Z,1.89
2022-10-21T02:58:53.711Z,1.69
2022-10-21T03:01:59.662Z,1.57
2022-10-21T03:05:06.603Z,1.38
2022-10-21T03:08:13.818Z,1.80
2022-10-21T03:11:20.053Z,2.00
2022-10-21T03:14:26.057Z,2.23
2022-10-21T03:17:32.446Z,2.05
2022-10-21T03:20:38.737Z,1.65
2022-10-21T03:23:46.476Z,1.62
2022-10-21T03:26:52.685Z,1.61
2022-10-21T03:29:59.255Z,1.55
2022-10-21T03:33:05.683Z,1.49
2022-10-21T03:36:12.056Z,1.36
2022-10-21T03:39:19.825Z,1.36
2022-10-21T03:42:25.919Z,1.25
2022-10-21T03:45:32.152Z,1.10
2022-10-21T03:48:38.447Z,1.20
2022-10-21T03:51:44.620Z,1.34
2022-10-21T03:54:52.451Z,1.73
2022-10-21T03:57:58.595Z,1.65
2022-10-21T04:01:05.035Z,1.42
2022-10-21T04:04:11.040Z,2.01
2022-10-21T04:07:17.034Z,1.72
2022-10-21T04:10:24.679Z,1.72
2022-10-21T04:13:31.539Z,1.42
2022-10-21T04:16:37.705Z,1.07
2022-10-21T04:19:43.877Z,1.66
2022-10-21T04:22:50.404Z,0.88
2022-10-21T04:25:58.144Z,0.37
2022-10-21T04:29:04.483Z,0.53
2022-10-21T04:32:10.640Z,0.65
2022-10-21T04:35:16.888Z,0.56
2022-10-21T04:38:23.326Z,0.46
2022-10-21T04:41:30.577Z,1.06
2022-10-21T04:44:38.912Z,1.18
2022-10-21T04:47:45.232Z,0.73
2022-10-21T04:50:52.390Z,1.02
2022-10-21T04:53:58.304Z,1.58
2022-10-21T04:57:06.086Z,2.01
2022-10-21T05:00:13.376Z,2.02
2022-10-21T05:03:20.176Z,1.47
2022-10-21T05:06:26.018Z,1.40
2022-10-21T05:09:32.369Z,1.37
2022-10-21T05:12:40.066Z,1.70
2022-10-21T05:15:46.054Z,2.09
2022-10-21T05:18:52.557Z,1.74
2022-10-21T05:21:58.597Z,1.31
2022-10-21T05:25:05.029Z,1.32
2022-10-21T05:28:12.727Z,1.64
2022-10-21T05:31:18.939Z,1.79
2022-10-21T05:34:25.430Z,2.03
2022-10-21T05:37:31.975Z,2.12
2022-10-21T05:40:38.689Z,1.74
2022-10-21T05:43:46.311Z,1.21
2022-10-21T05:46:52.566Z,1.69
2022-10-21T05:49:58.779Z,2.09
2022-10-21T05:53:06.060Z,2.26
2022-10-21T05:56:12.371Z,3.11
2022-10-21T05:59:19.955Z,3.19
2022-10-21T06:02:26.089Z,3.75
2022-10-21T06:05:32.945Z,4.32
2022-10-21T06:08:40.336Z,4.02
2022-10-21T06:11:46.287Z,4.07
2022-10-21T06:14:53.929Z,4.13
2022-10-21T06:18:00.463Z,4.22
2022-10-21T06:21:07.290Z,4.76
2022-10-21T06:24:13.340Z,4.98
2022-10-21T06:27:20.246Z,4.49
2022-10-21T06:30:27.886Z,4.46
2022-10-21T06:33:34.713Z,5.00
2022-10-21T06:36:40.823Z,5.46
2022-10-21T06:39:47.133Z,5.87
2022-10-21T06:42:53.406Z,6.14
2022-10-21T06:46:05.450Z,5.95
2022-10-21T06:49:11.777Z,6.46
2022-10-21T06:52:18.025Z,6.62
2022-10-21T06:55:24.362Z,6.90
2022-10-21T06:58:32.019Z,6.76
2022-10-21T07:01:59.233Z,7.00
2022-10-21T07:05:06.923Z,7.27
2022-10-21T07:08:14.670Z,7.50
2022-10-21T07:11:20.948Z,7.45
2022-10-21T07:14:27.107Z,7.52
2022-10-21T07:17:34.892Z,7.92
2022-10-21T07:20:41.360Z,8.10
2022-10-21T07:23:49.257Z,8.11
2022-10-21T07:26:55.680Z,8.39
2022-10-21T07:30:02.095Z,8.48
2022-10-21T07:33:09.568Z,8.87
2022-10-21T07:36:18.955Z,8.98
2022-10-21T07:39:27.748Z,8.71
2022-10-21T07:42:34.206Z,8.96
2022-10-21T07:45:42.863Z,9.18
2022-10-21T07:48:50.717Z,9.52
2022-10-21T07:51:57.684Z,9.63
2022-10-21T07:55:03.884Z,9.87
2022-10-21T07:58:10.240Z,10.21
2022-10-21T08:01:17.795Z,9.85
2022-10-21T08:04:29.878Z,10.40
2022-10-21T08:07:36.076Z,10.56
2022-10-21T08:10:42.916Z,10.57
2022-10-21T08:13:49.454Z,10.67
2022-10-21T08:16:56.174Z,10.89
2022-10-21T08:20:03.703Z,11.06
2022-10-21T08:23:10.368Z,10.90
2022-10-21T08:26:17.887Z,11.94
2022-10-21T08:29:24.260Z,11.42
2022-10-21T08:32:30.511Z,10.84
2022-10-21T08:35:38.223Z,11.92
2022-10-21T08:38:44.758Z,11.90
2022-10-21T08:42:08.969Z,12.89
2022-10-21T08:45:24.736Z,12.68
2022-10-21T08:48:35.122Z,12.77
2022-10-21T08:51:47.563Z,13.24
2022-10-21T08:54:58.939Z,13.23
2022-10-21T08:58:06.435Z,12.69
2022-10-21T09:01:23.103Z,12.68
2022-10-21T09:04:38.565Z,13.65
2022-10-21T09:07:55.435Z,13.66
2022-10-21T09:11:07.092Z,13.80
2022-10-21T09:14:35.494Z,13.87
2022-10-21T09:17:57.728Z,14.71
2022-10-21T09:21:12.056Z,14.54
2022-10-21T09:24:26.466Z,14.83
2022-10-21T09:27:51.409Z,15.20
2022-10-21T09:31:04.120Z,14.63
2022-10-21T09:34:22.178Z,14.56
2022-10-21T09:37:35.614Z,14.86
2022-10-21T09:40:43.299Z,15.37
2022-10-21T09:43:49.990Z,16.00
2022-10-21T09:46:56.701Z,15.40
2022-10-21T09:50:08.131Z,15.30
2022-10-21T09:53:22.638Z,15.15
2022-10-21T09:56:40.390Z,15.48
2022-10-21T09:59:58.976Z,15.68
2022-10-21T10:03:04.963Z,15.47
2022-10-21T10:06:11.166Z,15.74
2022-10-21T10:09:25.780Z,16.26
2022-10-21T10:12:33.776Z,16.42
2022-10-21T10:15:40.258Z,16.31
2022-10-21T10:18:47.109Z,16.52
2022-10-21T10:22:10.499Z,16.11
2022-10-21T10:25:24.364Z,17.10
2022-10-21T10:28:32.179Z,16.59
2022-10-21T10:31:39.136Z,16.62
2022-10-21T10:34:54.257Z,16.87
2022-10-21T10:38:02.570Z,17.06
2022-10-21T10:41:11.691Z,17.83
2022-10-21T10:44:30.472Z,17.67
2022-10-21T10:47:42.698Z,17.58
2022-10-21T10:50:51.135Z,17.02
2022-10-21T10:54:03.160Z,17.57
2022-10-21T10:57:15.215Z,17.93
2022-10-21T11:00:24.237Z,17.80
2022-10-21T11:03:41.265Z,17.95
2022-10-21T11:06:51.609Z,17.64
2022-10-21T11:10:03.994Z,17.88
2022-10-21T11:13:14.036Z,17.69
2022-10-21T11:16:59.081Z,17.26
2022-10-21T11:20:15.049Z,17.33
2022-10-21T11:23:41.958Z,18.56
2022-10-21T11:26:56.886Z,18.11
2022-10-21T11:30:11.191Z,17.81
2022-10-21T11:33:26.783Z,18.44
2022-10-21T11:36:38.706Z,19.35
2022-10-21T11:39:53.951Z,18.20
2022-10-21T11:43:06.990Z,18.58
2022-10-21T11:46:20.599Z,17.95
2022-10-21T11:49:49.756Z,18.75
2022-10-21T11:53:14.751Z,18.49
2022-10-21T11:56:29.072Z,19.32
2022-10-21T11:59:54.088Z,20.00
2022-10-21T12:03:30.961Z,19.39
2022-10-21T12:06:47.476Z,19.63
2022-10-21T12:09:59.439Z,19.68
2022-10-21T12:13:11.827Z,20.38
2022-10-21T12:16:21.306Z,19.26
2022-10-21T12:19:28.147Z,19.11
2022-10-21T12:22:37.201Z,19.12
2022-10-21T12:25:50.684Z,20.00
2022-10-21T12:29:04.133Z,19.54
2022-10-21T12:32:27.266Z,19.19
2022-10-21T12:35:45.531Z,19.50
2022-10-21T12:38:54.670Z,19.78
2022-10-21T12:42:06.727Z,20.21
2022-10-21T12:45:27.670Z,20.20
2022-10-21T12:48:38.517Z,19.91
2022-10-21T12:51:50.380Z,19.66
2022-10-21T12:55:01.209Z,20.63
2022-10-21T12:58:16.554Z,20.02
2022-10-21T13:01:40.701Z,20.06
2022-10-21T13:04:50.038Z,20.07
2022-10-21T13:08:17.313Z,21.06
2022-10-21T13:11:39.001Z,20.86
2022-10-21T13:14:47.101Z,21.02
2022-10-21T13:17:54.713Z,21.07
2022-10-21T13:21:00.834Z,20.14
2022-10-21T13:24:24.223Z,20.56
2022-10-21T13:31:00.684Z,21.12
2022-10-21T13:34:07.711Z,21.00
2022-10-21T13:37:15.996Z,20.61
2022-10-21T13:40:24.895Z,20.76
2022-10-21T13:43:40.063Z,20.27
2022-10-21T13:46:46.338Z,20.72
2022-10-21T13:49:54.751Z,20.34
2022-10-21T13:53:03.622Z,19.95
2022-10-21T13:56:19.294Z,18.77
2022-10-21T13:59:30.076Z,18.33
2022-10-21T14:02:36.635Z,18.38
2022-10-21T14:05:48.921Z,18.53
2022-10-21T14:08:56.420Z,18.98
2022-10-21T14:12:05.947Z,18.78
2022-10-21T14:15:19.356Z,19.05
2022-10-21T14:18:33.538Z,18.70
2022-10-21T14:21:46.680Z,17.64
2022-10-21T14:24:56.656Z,16.66
2022-10-21T14:28:05.011Z,16.61
2022-10-21T14:31:15.079Z,16.49
2022-10-21T14:34:25.036Z,16.42
2022-10-21T14:37:37.417Z,16.27
2022-10-21T14:40:43.837Z,16.13
2022-10-21T14:43:53.055Z,16.05
2022-10-21T14:47:01.531Z,15.63
2022-10-21T14:50:08.799Z,15.75
2022-10-21T14:53:18.076Z,15.23
2022-10-21T14:56:30.463Z,14.82
2022-10-21T14:59:40.822Z,14.71
2022-10-21T15:02:48.487Z,14.59
2022-10-21T15:06:10.075Z,14.23
2022-10-21T15:09:23.300Z,14.12
2022-10-21T15:12:40.151Z,13.74
2022-10-21T15:15:53.558Z,13.74
2022-10-21T15:19:08.441Z,13.56
2022-10-21T15:22:25.023Z,13.66
2022-10-21T15:25:31.662Z,13.42
2022-10-21T15:28:38.503Z,13.19
2022-10-21T15:31:45.133Z,13.30
2022-10-21T15:34:55.098Z,13.12
2022-10-21T15:38:01.245Z,12.87
2022-10-21T15:41:10.779Z,12.98
2022-10-21T15:44:22.623Z,12.87
2022-10-21T15:47:28.915Z,12.74
2022-10-21T15:50:39.130Z,12.82
2022-10-21T15:53:45.103Z,12.44
2022-10-21T15:56:53.415Z,12.31
2022-10-21T15:59:59.518Z,12.26
2022-10-21T16:03:06.010Z,12.12
2022-10-21T16:06:17.279Z,12.14
2022-10-21T16:09:25.916Z,12.05
2022-10-21T16:12:31.894Z,11.88
2022-10-21T16:15:38.217Z,11.80
2022-10-21T16:18:44.598Z,11.66
2022-10-21T16:21:52.390Z,11.94
2022-10-21T16:24:58.412Z,11.72
2022-10-21T16:28:05.218Z,11.65
2022-10-21T16:31:13.599Z,11.63
2022-10-21T16:34:20.385Z,11.46
2022-10-21T16:37:29.129Z,11.47
2022-10-21T16:40:36.737Z,11.23
2022-10-21T16:43:43.988Z,11.58
2022-10-21T16:46:52.269Z,11.80
2022-10-21T16:50:02.813Z,11.51
2022-10-21T16:53:15.345Z,11.57
2022-10-21T16:56:21.780Z,11.16
2022-10-21T16:59:27.666Z,11.16
2022-10-21T17:02:37.965Z,11.01
2022-10-21T17:05:46.333Z,11.11
2022-10-21T17:08:55.480Z,10.81
2022-10-21T17:12:01.841Z,10.68
2022-10-21T17:15:09.563Z,10.77
2022-10-21T17:18:16.033Z,10.39
2022-10-21T17:21:23.883Z,9.82
2022-10-21T17:24:31.812Z,9.63
2022-10-21T17:27:38.127Z,9.74
2022-10-21T17:30:45.035Z,9.61
2022-10-21T17:33:53.743Z,9.48
2022-10-21T17:37:00.467Z,9.31
2022-10-21T17:40:10.166Z,9.46
2022-10-21T17:43:16.302Z,9.13
2022-10-21T17:46:24.563Z,9.32
2022-10-21T17:49:31.100Z,8.90
2022-10-21T17:52:38.353Z,8.70
2022-10-21T17:55:46.316Z,8.39
2022-10-21T17:58:53.726Z,8.33
2022-10-21T18:02:00.644Z,7.59
2022-10-21T18:05:08.853Z,8.13
2022-10-21T18:08:15.330Z,8.23
2022-10-21T18:11:23.067Z,8.21
2022-10-21T18:14:29.211Z,8.06
2022-10-21T18:17:37.584Z,7.86
2022-10-21T18:20:43.972Z,8.10
2022-10-21T18:23:52.322Z,8.28
2022-10-21T18:26:59.686Z,7.63
2022-10-21T18:30:07.134Z,7.57
2022-10-21T18:33:13.121Z,7.78
2022-10-21T18:36:19.487Z,7.49
2022-10-21T18:39:25.722Z,7.50
2022-10-21T18:42:33.451Z,7.52
2022-10-21T18:45:39.347Z,7.33
2022-10-21T18:48:45.753Z,6.80
2022-10-21T18:51:51.990Z,6.65
2022-10-21T18:54:58.345Z,6.80
2022-10-21T18:58:05.805Z,6.84
2022-10-21T19:01:13.268Z,6.62
2022-10-21T19:04:19.849Z,6.79
2022-10-21T19:07:26.046Z,6.85
2022-10-21T19:10:32.441Z,7.03
2022-10-21T19:13:40.294Z,6.58
2022-10-21T19:16:47.808Z,6.74
2022-10-21T19:19:54.169Z,6.44
2022-10-21T19:23:00.585Z,6.09
2022-10-21T19:26:11.867Z,6.01
2022-10-21T19:29:21.896Z,6.65
2022-10-21T19:32:28.043Z,6.66
2022-10-21T19:35:34.232Z,6.66
2022-10-21T19:38:44.327Z,6.02
2022-10-21T19:41:50.877Z,5.95
2022-10-21T19:44:58.714Z,5.99
2022-10-21T19:48:05.007Z,6.57
2022-10-21T19:51:15.290Z,6.61
2022-10-21T19:54:21.520Z,6.71
2022-10-21T19:57:27.708Z,6.44
2022-10-21T20:00:35.490Z,5.89
2022-10-21T20:03:44.667Z,5.67
2022-10-21T20:06:50.621Z,6.10
2022-10-21T20:09:56.926Z,6.39
2022-10-21T20:13:03.319Z,6.45
2022-10-21T20:16:16.074Z,6.43
2022-10-21T20:19:22.317Z,6.43
2022-10-21T20:22:28.235Z,5.97
2022-10-21T20:25:34.426Z,5.76
2022-10-21T20:28:40.917Z,5.50
2022-10-21T20:31:48.590Z,5.72
2022-10-21T20:34:57.461Z,5.30
2022-10-21T20:38:03.542Z,5.89
2022-10-21T20:41:12.508Z,5.19
2022-10-21T20:44:18.723Z,5.16
2022-10-21T20:47:30.780Z,5.49
2022-10-21T20:50:37.038Z,5.42
2022-10-21T20:56:57.036Z,5.21
2022-10-21T21:00:03.109Z,5.74
2022-10-21T21:03:10.595Z,5.63
2022-10-21T21:06:16.665Z,5.18
2022-10-21T21:10:01.159Z,5.07
2022-10-21T21:12:49.571Z,4.74
2022-10-21T21:16:04.628Z,4.94
2022-10-21T21:19:14.656Z,4.80
2022-10-21T21:22:21.582Z,5.17
2022-10-21T21:25:28.672Z,5.32
2022-10-21T21:28:36.372Z,5.40
2022-10-21T21:31:43.872Z,4.69
2022-10-21T21:34:55.341Z,4.25
2022-10-21T21:38:01.227Z,4.54
2022-10-21T21:41:09.836Z,4.35
2022-10-21T21:44:16.960Z,4.76
2022-10-21T21:47:23.151Z,4.48
2022-10-21T21:50:30.944Z,4.74
2022-10-21T21:53:37.131Z,4.61
2022-10-21T21:56:43.910Z,4.70
2022-10-21T21:59:50.278Z,4.10
2022-10-21T22:02:56.984Z,4.30
2022-10-21T22:06:05.579Z,4.17
2022-10-21T22:09:12.179Z,4.29
2022-10-21T22:12:20.912Z,3.82
2022-10-21T22:15:47.154Z,3.62
2022-10-21T22:18:55.187Z,3.85
2022-10-21T22:22:02.615Z,4.02
2022-10-21T22:25:09.798Z,4.06
2022-10-21T22:28:15.888Z,4.25
2022-10-21T22:31:28.892Z,4.21
2022-10-21T22:34:36.781Z,4.57
2022-10-21T22:37:44.430Z,3.76
2022-10-21T22:40:54.241Z,3.40
2022-10-21T22:44:00.743Z,3.37
2022-10-21T22:47:07.284Z,4.04
2022-10-21T22:50:13.627Z,4.45
2022-10-21T22:53:21.255Z,4.31
2022-10-21T22:56:27.908Z,3.82
2022-10-21T22:59:33.934Z,3.49
2022-10-21T23:02:40.161Z,4.19
2022-10-21T23:05:46.867Z,3.93
2022-10-21T23:08:54.417Z,3.93
2022-10-21T23:12:00.841Z,4.27
2022-10-21T23:15:08.851Z,4.17
2022-10-21T23:18:15.484Z,3.86
2022-10-21T23:21:21.719Z,4.13
2022-10-21T23:24:29.359Z,3.70
2022-10-21T23:27:35.331Z,4.12
2022-10-21T23:30:43.351Z,3.51
2022-10-21T23:33:49.935Z,3.62
2022-10-21T23:36:55.942Z,3.81
2022-10-21T23:40:03.607Z,3.83
2022-10-21T23:43:09.845Z,3.57
2022-10-21T23:46:16.130Z,3.10
2022-10-21T23:49:22.376Z,2.61
2022-10-21T23:52:28.831Z,2.67
2022-10-21T23:55:36.915Z,2.49
2022-10-21T23:58:43.291Z,2.79
